PWSweather.com
Personal Weather Stations
Station Observations
ABQWX
Albuquerque, NM 87110

Albuquerque, NM 87110

Lat: 35.1305, Lon: -106.58571

Elevation: 5210

Station Type: LaCrosse

http://www.albuquerqueweather.info/

Latest ConditionsUpdated 11:00:03 PM MDT Friday, Mar 27, 2015
Currently Today's Max Today's Min Today's Average
Temperature 61.6°F16.4°C 82.8°F28.2°C 38.2°F3.4°C 60.1°F15.6°C
Dew Point 23.4°F-4.8°C 35.0°F1.7°C 20.5°F-6.4°C 26.9°F-2.8°C
Winds 1.8 mph N2.9 kmh N 7.7 mph W12.4 kmh W - 3.2 mph 5.1 kmh
Wind Gusts 3.4 mph5.5 kmh 15.7 mph25.3 kmh - -
Humidity 23% 50% 17% 31%
Pressure 30.20 in1022.7 mb 30.32 in1026.8 mb 30.15 in1021.0 mb -
Hour Temp Dew Point Humidity Winds Wind Gusts Pressure Precip Precip Rate Daily Precip Total
11:00 PM 61.6°F16.4°C 23.4°F-4.8°C 23% 1.8 mph N2.9 kmh N 3.4 mph5.5 kmh 30.20 in1022.7 mb 0.00 in0.0 mm 0.00 in0.0 mm 0.00 in0.0 mm
10:00 PM 64.7°F18.2°C 24.9°F-3.9°C 22% 3.6 mph N5.8 kmh N 6.0 mph9.7 kmh 30.19 in1022.4 mb 0.00 in0.0 mm 0.00 in0.0 mm 0.00 in0.0 mm
09:00 PM 66.6°F19.2°C 25.4°F-3.7°C 21% 4.6 mph NW7.4 kmh NW 7.8 mph12.6 kmh 30.17 in1021.7 mb 0.00 in0.0 mm 0.00 in0.0 mm 0.00 in0.0 mm
08:00 PM 69.7°F20.9°C 25.6°F-3.6°C 19% 5.4 mph NW8.7 kmh NW 11.0 mph17.7 kmh 30.16 in1021.3 mb 0.00 in0.0 mm 0.00 in0.0 mm 0.00 in0.0 mm
07:00 PM 72.9°F22.7°C 26.9°F-2.8°C 18% 7.0 mph NW11.3 kmh NW 11.4 mph18.3 kmh 30.15 in1021.0 mb 0.00 in0.0 mm 0.00 in0.0 mm 0.00 in0.0 mm
06:00 PM 75.8°F24.3°C 27.9°F-2.3°C 17% 7.5 mph NW12.1 kmh NW 12.5 mph20.1 kmh 30.15 in1021.0 mb 0.00 in0.0 mm 0.00 in0.0 mm 0.00 in0.0 mm
05:00 PM 79.1°F26.2°C 31.9°F-0.1°C 18% 7.7 mph W12.4 kmh W 15.7 mph25.3 kmh 30.15 in1021.0 mb 0.00 in0.0 mm 0.00 in0.0 mm 0.00 in0.0 mm
04:00 PM 82.8°F28.2°C 33.5°F0.8°C 17% 6.4 mph W10.3 kmh W 15.7 mph25.3 kmh 30.17 in1021.7 mb 0.00 in0.0 mm 0.00 in0.0 mm 0.00 in0.0 mm
03:00 PM 80.7°F27.1°C 33.2°F0.7°C 18% 6.0 mph W9.7 kmh W 14.1 mph22.7 kmh 30.20 in1022.7 mb 0.00 in0.0 mm 0.00 in0.0 mm 0.00 in0.0 mm
02:00 PM 78.9°F26.1°C 33.1°F0.6°C 19% 6.7 mph NW10.8 kmh NW 12.3 mph19.8 kmh 30.23 in1023.7 mb 0.00 in0.0 mm 0.00 in0.0 mm 0.00 in0.0 mm
01:00 PM 76.7°F24.8°C 35.0°F1.7°C 22% 2.2 mph SW3.5 kmh SW 6.9 mph11.1 kmh 30.27 in1025.1 mb 0.00 in0.0 mm 0.00 in0.0 mm 0.00 in0.0 mm
12:00 PM 73.1°F22.8°C 34.2°F1.2°C 24% 3.0 mph NE4.8 kmh NE 6.3 mph10.1 kmh 30.30 in1026.1 mb 0.00 in0.0 mm 0.00 in0.0 mm 0.00 in0.0 mm
11:00 AM 68.4°F20.2°C 33.1°F0.6°C 27% 1.9 mph SSE3.1 kmh SSE 3.8 mph6.1 kmh 30.32 in1026.8 mb 0.00 in0.0 mm 0.00 in0.0 mm 0.00 in0.0 mm
10:00 AM 59.8°F15.4°C 30.6°F-0.8°C 33% 2.9 mph W4.7 kmh W 4.7 mph7.6 kmh 30.32 in1026.8 mb 0.00 in0.0 mm 0.00 in0.0 mm 0.00 in0.0 mm
09:00 AM 50.3°F10.2°C 29.2°F-1.6°C 44% 1.9 mph WSW3.1 kmh WSW 3.1 mph5.0 kmh 30.32 in1026.8 mb 0.00 in0.0 mm 0.00 in0.0 mm 0.00 in0.0 mm
08:00 AM 40.2°F4.6°C 23.0°F-5.0°C 50% 1.1 mph ESE1.8 kmh ESE 2.7 mph4.3 kmh 30.32 in1026.8 mb 0.00 in0.0 mm 0.00 in0.0 mm 0.00 in0.0 mm
07:00 AM 38.2°F3.4°C 20.7°F-6.3°C 49% 0.7 mph E1.1 kmh E 1.8 mph2.9 kmh 30.30 in1026.1 mb 0.00 in0.0 mm 0.00 in0.0 mm 0.00 in0.0 mm
06:00 AM 38.6°F3.7°C 20.5°F-6.4°C 48% 0.8 mph NE1.3 kmh NE 1.8 mph2.9 kmh 30.29 in1025.7 mb 0.00 in0.0 mm 0.00 in0.0 mm 0.00 in0.0 mm
05:00 AM 40.0°F4.4°C 20.9°F-6.2°C 46% 0.3 mph S0.5 kmh S 0.7 mph1.1 kmh 30.27 in1025.1 mb 0.00 in0.0 mm 0.00 in0.0 mm 0.00 in0.0 mm
04:00 AM 41.1°F5.1°C 21.9°F-5.6°C 46% 1.3 mph ENE2.1 kmh ENE 2.5 mph4.0 kmh 30.26 in1024.7 mb 0.00 in0.0 mm 0.00 in0.0 mm 0.00 in0.0 mm
03:00 AM 43.1°F6.2°C 22.1°F-5.5°C 43% 0.8 mph ENE1.3 kmh ENE 1.8 mph2.9 kmh 30.27 in1025.1 mb 0.00 in0.0 mm 0.00 in0.0 mm 0.00 in0.0 mm
02:00 AM 44.3°F6.8°C 22.6°F-5.2°C 42% 0.4 mph SSE0.6 kmh SSE 1.3 mph2.1 kmh 30.28 in1025.4 mb 0.00 in0.0 mm 0.00 in0.0 mm 0.00 in0.0 mm
01:00 AM 46.5°F8.1°C 22.8°F-5.1°C 39% 0.9 mph E1.4 kmh E 2.0 mph3.2 kmh 30.27 in1025.1 mb 0.00 in0.0 mm 0.00 in0.0 mm 0.00 in0.0 mm
12:00 AM 48.1°F8.9°C 23.0°F-5.0°C 37% 1.1 mph E1.8 kmh E 2.2 mph3.5 kmh 30.28 in1025.4 mb 0.00 in0.0 mm 0.00 in0.0 mm 0.00 in0.0 mm